createdAt,value
2023-02-04T00:00:27.666Z,48.25
2023-02-04T00:02:58.385Z,43.08
2023-02-04T00:05:29.170Z,46.28
2023-02-04T00:07:59.915Z,39.73
2023-02-04T00:10:32.174Z,43.17
2023-02-04T00:13:03.299Z,38.35
2023-02-04T00:15:34.074Z,38.50
2023-02-04T00:18:05.074Z,40.52
2023-02-04T00:20:36.035Z,38.55
2023-02-04T00:23:06.759Z,40.17
2023-02-04T00:25:37.520Z,37.90
2023-02-04T00:28:08.266Z,39.38
2023-02-04T00:30:39.029Z,36.42
2023-02-04T00:33:10.049Z,44.20
2023-02-04T00:35:40.817Z,42.98
2023-02-04T00:38:11.532Z,41.05
2023-02-04T00:40:42.511Z,41.70
2023-02-04T00:43:13.180Z,37.38
2023-02-04T00:45:43.880Z,49.38
2023-02-04T00:48:14.539Z,39.80
2023-02-04T00:50:45.356Z,43.42
2023-02-04T00:53:17.881Z,44.42
2023-02-04T00:55:49.848Z,45.08
2023-02-04T00:58:21.152Z,45.65
2023-02-04T01:00:52.229Z,40.40
2023-02-04T01:03:23.346Z,43.63
2023-02-04T01:05:54.430Z,41.65
2023-02-04T01:08:26.252Z,44.88
2023-02-04T01:10:58.876Z,40.10
2023-02-04T01:13:49.643Z,35.38
2023-02-04T01:16:22.418Z,39.75
2023-02-04T01:18:54.426Z,42.00
2023-02-04T01:21:26.876Z,36.75
2023-02-04T01:23:58.022Z,39.27
2023-02-04T01:26:28.712Z,36.60
2023-02-04T01:28:59.681Z,43.33
2023-02-04T01:31:32.249Z,39.92
2023-02-04T01:34:04.686Z,42.17
2023-02-04T01:36:36.802Z,39.88
2023-02-04T01:39:07.647Z,34.35
2023-02-04T01:41:38.985Z,40.00
2023-02-04T01:44:13.100Z,37.98
2023-02-04T01:46:45.678Z,42.35
2023-02-04T01:49:17.383Z,51.65
2023-02-04T01:51:49.087Z,51.20
2023-02-04T01:54:22.003Z,43.75
2023-02-04T01:56:52.813Z,41.83
2023-02-04T01:59:25.468Z,37.23
2023-02-04T02:01:58.095Z,38.70
2023-02-04T02:04:36.807Z,36.45
2023-02-04T02:07:10.150Z,34.00
2023-02-04T02:09:41.563Z,35.13
2023-02-04T02:12:12.595Z,34.35
2023-02-04T02:14:43.271Z,34.92
2023-02-04T02:17:15.704Z,33.30
2023-02-04T02:22:34.972Z,36.88
2023-02-04T02:25:07.374Z,32.70
2023-02-04T02:27:38.550Z,34.63
2023-02-04T02:30:14.192Z,37.83
2023-02-04T02:32:52.096Z,32.13
2023-02-04T02:35:23.402Z,27.27
2023-02-04T02:37:58.279Z,26.35
2023-02-04T02:40:34.726Z,27.82
2023-02-04T02:43:06.753Z,25.82
2023-02-04T02:45:37.993Z,26.82
2023-02-04T02:48:08.792Z,22.65
2023-02-04T02:50:40.822Z,24.10
2023-02-04T02:53:16.492Z,28.52
2023-02-04T02:55:48.529Z,24.43
2023-02-04T02:58:27.716Z,22.95
2023-02-04T03:00:59.770Z,19.95
2023-02-04T03:03:34.965Z,20.80
2023-02-04T03:06:08.463Z,24.15
2023-02-04T03:08:41.287Z,21.33
2023-02-04T03:11:12.175Z,24.63
2023-02-04T03:13:44.021Z,24.52
2023-02-04T03:16:15.739Z,28.42
2023-02-04T03:18:47.132Z,26.10
2023-02-04T03:21:26.932Z,28.50
2023-02-04T03:23:58.277Z,29.60
2023-02-04T03:26:32.408Z,29.50
2023-02-04T03:29:03.403Z,27.07
2023-02-04T03:31:35.066Z,27.37
2023-02-04T03:34:05.904Z,23.30
2023-02-04T03:36:38.196Z,23.73
2023-02-04T03:39:09.181Z,27.22
2023-02-04T03:41:39.940Z,28.20
2023-02-04T03:44:11.051Z,30.88
2023-02-04T03:46:42.359Z,31.20
2023-02-04T03:49:13.771Z,26.65
2023-02-04T03:51:44.624Z,26.55
2023-02-04T03:54:16.820Z,27.10
2023-02-04T03:56:47.781Z,30.60
2023-02-04T03:59:18.430Z,28.55
2023-02-04T04:01:50.378Z,27.70
2023-02-04T04:04:24.407Z,28.35
2023-02-04T04:06:55.455Z,26.62
2023-02-04T04:09:27.671Z,25.97
2023-02-04T04:11:59.088Z,28.07
2023-02-04T04:14:29.763Z,25.48
2023-02-04T04:17:00.610Z,24.05
2023-02-04T04:19:33.942Z,24.10
2023-02-04T04:22:05.195Z,25.10
2023-02-04T04:24:36.027Z,23.65
2023-02-04T04:27:06.913Z,25.43
2023-02-04T04:29:40.359Z,24.90
2023-02-04T04:32:11.006Z,20.48
2023-02-04T04:34:42.653Z,16.87
2023-02-04T04:37:14.261Z,19.23
2023-02-04T04:39:44.936Z,20.52
2023-02-04T04:42:15.633Z,20.88
2023-02-04T04:44:46.754Z,25.75
2023-02-04T04:47:17.927Z,19.67
2023-02-04T04:49:49.122Z,17.67
2023-02-04T04:52:20.290Z,29.07
2023-02-04T04:54:51.759Z,28.65
2023-02-04T04:57:22.493Z,24.00
2023-02-04T04:59:53.593Z,24.45
2023-02-04T05:02:25.133Z,27.37
2023-02-04T05:04:56.155Z,25.92
2023-02-04T05:07:29.953Z,23.45
2023-02-04T05:10:01.044Z,25.70
2023-02-04T05:12:32.563Z,27.32
2023-02-04T05:15:04.081Z,25.82
2023-02-04T05:17:34.870Z,27.77
2023-02-04T05:20:06.187Z,22.82
2023-02-04T05:22:37.172Z,24.02
2023-02-04T05:25:08.612Z,26.12
2023-02-04T05:27:40.275Z,26.23
2023-02-04T05:30:12.731Z,24.90
2023-02-04T05:32:46.588Z,27.00
2023-02-04T05:35:17.525Z,25.27
2023-02-04T05:37:49.037Z,19.92
2023-02-04T05:40:20.834Z,21.82
2023-02-04T05:42:54.252Z,20.85
2023-02-04T05:45:24.974Z,20.70
2023-02-04T05:47:56.249Z,21.42
2023-02-04T05:50:34.883Z,20.85
2023-02-04T05:53:04.237Z,17.50
2023-02-04T05:55:34.977Z,17.85
2023-02-04T05:58:08.332Z,19.62
2023-02-04T06:00:40.198Z,17.98
2023-02-04T06:03:11.435Z,20.60
2023-02-04T06:05:42.513Z,18.87
2023-02-04T06:08:16.141Z,20.05
2023-02-04T06:10:46.804Z,18.77
2023-02-04T06:13:18.188Z,17.10
2023-02-04T06:15:48.838Z,15.20
2023-02-04T06:18:22.785Z,17.02
2023-02-04T06:20:59.721Z,17.73
2023-02-04T06:23:30.999Z,17.25
2023-02-04T06:26:01.716Z,13.83
2023-02-04T06:28:33.209Z,13.25
2023-02-04T06:31:04.124Z,13.20
2023-02-04T06:33:35.397Z,14.85
2023-02-04T06:36:07.213Z,16.05
2023-02-04T06:38:39.384Z,14.00
2023-02-04T06:41:11.371Z,14.50
2023-02-04T06:43:42.728Z,14.50
2023-02-04T06:46:13.689Z,13.50
2023-02-04T06:48:48.585Z,14.75
2023-02-04T06:51:21.792Z,12.33
2023-02-04T06:53:53.687Z,15.23
2023-02-04T06:56:24.980Z,13.85
2023-02-04T06:58:55.860Z,12.70
2023-02-04T07:01:26.722Z,11.73
2023-02-04T07:03:58.231Z,16.20
2023-02-04T07:06:29.024Z,17.00
2023-02-04T07:08:59.708Z,27.95
2023-02-04T07:11:31.903Z,15.45
2023-02-04T07:14:06.736Z,14.70
2023-02-04T07:16:36.818Z,15.65
2023-02-04T07:19:08.013Z,22.58
2023-02-04T07:21:40.464Z,13.72
2023-02-04T07:24:11.662Z,14.05
2023-02-04T07:26:42.601Z,12.95
2023-02-04T07:29:20.705Z,15.58
2023-02-04T07:31:53.873Z,14.80
2023-02-04T07:34:29.903Z,17.75
2023-02-04T07:37:03.924Z,16.95
2023-02-04T07:39:34.765Z,14.05
2023-02-04T07:42:08.386Z,12.80
2023-02-04T07:44:39.033Z,13.48
2023-02-04T07:47:09.763Z,14.50
2023-02-04T07:49:43.323Z,13.88
2023-02-04T07:52:13.959Z,12.95
2023-02-04T07:54:44.711Z,15.18
2023-02-04T07:57:19.160Z,18.12
2023-02-04T07:59:50.480Z,17.07
2023-02-04T08:02:21.735Z,13.60
2023-02-04T08:04:53.568Z,17.60
2023-02-04T08:07:27.108Z,13.75
2023-02-04T08:09:57.768Z,17.80
2023-02-04T08:12:34.621Z,16.65
2023-02-04T08:15:07.739Z,14.65
2023-02-04T08:17:40.046Z,15.55
2023-02-04T08:20:12.180Z,15.30
2023-02-04T08:22:42.984Z,13.78
2023-02-04T08:25:15.201Z,14.28
2023-02-04T08:27:49.812Z,16.55
2023-02-04T08:30:20.817Z,15.23
2023-02-04T08:32:51.924Z,14.35
2023-02-04T08:35:22.814Z,16.12
2023-02-04T08:37:53.699Z,14.50
2023-02-04T08:40:27.404Z,15.23
2023-02-04T08:42:59.248Z,13.43
2023-02-04T08:45:36.253Z,15.70
2023-02-04T08:48:07.803Z,14.40
2023-02-04T08:50:39.936Z,15.90
2023-02-04T08:53:15.563Z,13.38
2023-02-04T08:55:45.714Z,15.20
2023-02-04T08:58:16.391Z,11.22
2023-02-04T09:00:47.133Z,16.40
2023-02-04T09:03:20.936Z,14.58
2023-02-04T09:06:01.970Z,13.70
2023-02-04T09:08:35.614Z,13.80
2023-02-04T09:11:06.718Z,16.48
2023-02-04T09:13:37.388Z,13.53
2023-02-04T09:16:11.882Z,15.68
2023-02-04T09:18:42.528Z,18.20
2023-02-04T09:21:17.508Z,17.20
2023-02-04T09:23:49.855Z,15.68
2023-02-04T09:26:21.096Z,11.88
2023-02-04T09:28:52.754Z,16.07
2023-02-04T09:31:26.768Z,14.70
2023-02-04T09:34:01.126Z,18.42
2023-02-04T09:36:38.882Z,15.65
2023-02-04T09:39:11.179Z,15.00
2023-02-04T09:41:44.706Z,20.08
2023-02-04T09:44:17.274Z,16.07
2023-02-04T09:46:56.888Z,17.02
2023-02-04T09:49:28.704Z,19.32
2023-02-04T09:51:59.983Z,13.93
2023-02-04T09:54:30.829Z,16.20
2023-02-04T09:57:01.642Z,16.55
2023-02-04T09:59:34.885Z,17.30
2023-02-04T10:02:15.970Z,15.80
2023-02-04T10:04:46.257Z,16.55
2023-02-04T10:07:21.944Z,77.67
2023-02-04T10:09:52.623Z,17.52
2023-02-04T10:12:24.109Z,16.42
2023-02-04T10:14:57.922Z,20.17
2023-02-04T10:17:29.267Z,17.92
2023-02-04T10:20:05.743Z,18.67
2023-02-04T10:22:37.405Z,16.85
2023-02-04T10:25:16.331Z,15.25
2023-02-04T10:28:00.755Z,16.23
2023-02-04T10:30:36.606Z,18.57
2023-02-04T10:33:28.560Z,20.68
2023-02-04T10:36:00.368Z,21.50
2023-02-04T10:38:31.029Z,19.07
2023-02-04T10:41:09.024Z,20.55
2023-02-04T10:43:40.363Z,24.57
2023-02-04T10:46:11.351Z,23.22
2023-02-04T10:51:34.447Z,21.15
2023-02-04T10:54:22.809Z,20.32
2023-02-04T10:56:53.511Z,20.17
2023-02-04T10:59:28.200Z,22.93
2023-02-04T11:02:01.030Z,18.52
2023-02-04T11:04:31.945Z,25.05
2023-02-04T11:07:02.737Z,21.25
2023-02-04T11:09:33.427Z,20.12
2023-02-04T11:12:04.770Z,22.20
2023-02-04T11:14:36.246Z,21.70
2023-02-04T11:17:07.057Z,26.57
2023-02-04T11:19:42.991Z,26.27
2023-02-04T11:22:26.376Z,27.90
2023-02-04T11:24:59.613Z,40.43
2023-02-04T11:27:42.539Z,47.03
2023-02-04T11:30:24.736Z,38.85
2023-02-04T11:33:10.233Z,39.33
2023-02-04T11:35:50.008Z,28.70
2023-02-04T11:38:30.496Z,29.27
2023-02-04T11:41:02.673Z,23.35
2023-02-04T11:43:38.946Z,23.05
2023-02-04T11:46:22.518Z,26.30
2023-02-04T11:48:57.943Z,19.42
2023-02-04T11:51:36.736Z,21.60
2023-02-04T11:54:08.803Z,22.85
2023-02-04T11:56:39.807Z,20.27
2023-02-04T11:59:13.075Z,18.27
2023-02-04T12:01:44.261Z,17.92
2023-02-04T12:04:26.130Z,19.20
2023-02-04T12:07:09.841Z,15.75
2023-02-04T12:09:43.064Z,21.07
2023-02-04T12:12:13.849Z,22.85
2023-02-04T12:14:45.016Z,21.17
2023-02-04T12:17:24.150Z,19.80
2023-02-04T12:19:54.928Z,20.90
2023-02-04T12:22:25.640Z,18.23
2023-02-04T12:24:56.741Z,21.12
2023-02-04T12:27:28.426Z,20.75
2023-02-04T12:29:59.777Z,19.98
2023-02-04T12:32:30.799Z,19.85
2023-02-04T12:35:01.537Z,23.00
2023-02-04T12:37:33.596Z,23.57
2023-02-04T12:40:04.920Z,23.02
2023-02-04T12:42:37.373Z,21.37
2023-02-04T12:45:08.444Z,25.17
2023-02-04T12:47:40.276Z,26.87
2023-02-04T12:50:12.927Z,28.23
2023-02-04T12:52:44.046Z,27.93
2023-02-04T12:55:15.082Z,26.97
2023-02-04T12:57:46.290Z,27.80
2023-02-04T13:00:19.414Z,27.82
2023-02-04T13:02:50.158Z,26.80
2023-02-04T13:05:21.356Z,33.80
2023-02-04T13:07:52.025Z,35.30
2023-02-04T13:10:25.161Z,31.00
2023-02-04T13:12:55.997Z,28.47
2023-02-04T13:15:34.818Z,31.02
2023-02-04T13:18:05.836Z,28.23
2023-02-04T13:20:36.584Z,28.65
2023-02-04T13:23:14.344Z,29.42
2023-02-04T13:25:50.617Z,24.57
2023-02-04T13:28:21.471Z,22.32
2023-02-04T13:30:52.263Z,25.77
2023-02-04T13:33:23.037Z,25.85
2023-02-04T13:35:53.848Z,25.60
2023-02-04T13:38:24.539Z,24.00
2023-02-04T13:40:55.360Z,26.12
2023-02-04T13:43:26.301Z,24.77
2023-02-04T13:45:58.458Z,24.15
2023-02-04T13:48:29.529Z,21.77
2023-02-04T13:51:00.203Z,24.52
2023-02-04T13:53:32.250Z,26.95
2023-02-04T13:56:03.074Z,26.25
2023-02-04T13:58:33.834Z,25.60
2023-02-04T14:01:04.678Z,26.95
2023-02-04T14:03:35.445Z,22.58
2023-02-04T14:06:06.502Z,23.80
2023-02-04T14:08:37.135Z,25.65
2023-02-04T14:11:08.368Z,25.52
2023-02-04T14:13:39.012Z,25.02
2023-02-04T14:16:10.473Z,27.90
2023-02-04T14:18:41.207Z,24.87
2023-02-04T14:21:11.868Z,26.73
2023-02-04T14:23:43.285Z,24.50
2023-02-04T14:26:13.988Z,35.43
2023-02-04T14:28:45.388Z,27.65
2023-02-04T14:31:16.282Z,31.77
2023-02-04T14:33:49.155Z,28.42
2023-02-04T14:36:19.163Z,36.03
2023-02-04T14:38:49.921Z,34.88
2023-02-04T14:41:22.046Z,29.25
2023-02-04T14:43:54.128Z,29.48
2023-02-04T14:46:25.046Z,39.23
2023-02-04T14:48:56.176Z,33.13
2023-02-04T14:51:27.326Z,33.23
2023-02-04T14:53:58.233Z,30.80
2023-02-04T14:56:28.960Z,34.88
2023-02-04T14:58:59.617Z,31.75
2023-02-04T15:01:31.699Z,41.37
2023-02-04T15:04:02.609Z,34.75
2023-02-04T15:06:33.308Z,37.75
2023-02-04T15:09:07.142Z,36.45
2023-02-04T15:11:39.840Z,34.40
2023-02-04T15:14:10.079Z,38.48
2023-02-04T15:16:41.749Z,38.73
2023-02-04T15:19:12.740Z,33.67
2023-02-04T15:21:43.408Z,35.58
2023-02-04T15:24:14.187Z,33.05
2023-02-04T15:26:44.917Z,38.55
2023-02-04T15:29:16.114Z,32.10
2023-02-04T15:31:46.963Z,31.68
2023-02-04T15:34:17.912Z,34.63
2023-02-04T15:36:50.000Z,32.30
2023-02-04T15:39:20.865Z,33.38
2023-02-04T15:41:51.518Z,32.60
2023-02-04T15:44:22.706Z,33.60
2023-02-04T15:46:53.528Z,33.95
2023-02-04T15:49:24.206Z,32.45
2023-02-04T15:51:54.891Z,31.70
2023-02-04T15:54:25.926Z,32.60
2023-02-04T15:56:56.550Z,36.73
2023-02-04T15:59:27.355Z,32.30
2023-02-04T16:01:58.019Z,31.45
2023-02-04T16:04:28.753Z,31.48
2023-02-04T16:07:00.492Z,32.83
2023-02-04T16:09:31.162Z,33.58
2023-02-04T16:12:01.847Z,31.90
2023-02-04T16:14:32.669Z,32.93
2023-02-04T16:17:03.767Z,30.48
2023-02-04T16:19:34.788Z,29.82
2023-02-04T16:22:07.469Z,31.97
2023-02-04T16:24:38.254Z,34.03
2023-02-04T16:27:08.927Z,34.78
2023-02-04T16:29:40.539Z,31.55
2023-02-04T16:32:11.408Z,35.78
2023-02-04T16:34:42.074Z,33.05
2023-02-04T16:37:12.853Z,29.32
2023-02-04T16:39:45.331Z,32.28
2023-02-04T16:42:16.070Z,26.80
2023-02-04T16:44:46.875Z,30.80
2023-02-04T16:47:17.590Z,31.30
2023-02-04T16:49:49.358Z,30.12
2023-02-04T16:52:20.427Z,30.50
2023-02-04T16:54:51.098Z,28.02
2023-02-04T16:57:21.926Z,24.95
2023-02-04T16:59:52.671Z,28.57
2023-02-04T17:02:23.405Z,31.85
2023-02-04T17:04:54.254Z,26.50
2023-02-04T17:07:24.952Z,27.37
2023-02-04T17:09:55.708Z,28.57
2023-02-04T17:12:26.382Z,27.17
2023-02-04T17:14:57.035Z,25.92
2023-02-04T17:17:27.807Z,28.87
2023-02-04T17:19:58.500Z,29.45
2023-02-04T17:22:29.239Z,30.50
2023-02-04T17:24:59.957Z,29.20
2023-02-04T17:27:30.633Z,28.98
2023-02-04T17:30:01.632Z,28.85
2023-02-04T17:32:33.094Z,26.37
2023-02-04T17:35:03.846Z,28.90
2023-02-04T17:37:34.711Z,30.15
2023-02-04T17:40:06.019Z,30.25
2023-02-04T17:42:37.032Z,28.90
2023-02-04T17:45:08.789Z,26.73
2023-02-04T17:47:40.576Z,25.77
2023-02-04T17:50:13.131Z,25.75
2023-02-04T17:52:43.789Z,27.25
2023-02-04T17:55:29.864Z,26.45
2023-02-04T17:58:06.316Z,25.25
2023-02-04T18:00:37.114Z,25.45
2023-02-04T18:03:09.637Z,26.20
2023-02-04T18:05:42.424Z,27.10
2023-02-04T18:08:27.281Z,24.65
2023-02-04T18:10:58.665Z,25.57
2023-02-04T18:13:35.470Z,25.12
2023-02-04T18:18:39.178Z,27.52
2023-02-04T18:21:24.496Z,27.52
2023-02-04T18:24:06.643Z,25.12
2023-02-04T18:26:38.654Z,26.52
2023-02-04T18:29:36.072Z,26.85
2023-02-04T18:32:41.109Z,27.58
2023-02-04T18:35:29.440Z,26.77
2023-02-04T18:38:00.116Z,24.30
2023-02-04T18:40:35.161Z,28.07
2023-02-04T18:43:14.396Z,25.95
2023-02-04T18:45:45.162Z,27.73
2023-02-04T18:48:26.777Z,22.62
2023-02-04T18:50:57.751Z,24.92
2023-02-04T18:53:30.339Z,26.45
2023-02-04T18:56:03.198Z,26.75
2023-02-04T18:58:40.114Z,27.80
2023-02-04T19:01:18.182Z,25.37
2023-02-04T19:04:00.516Z,28.27
2023-02-04T19:06:33.806Z,24.45
2023-02-04T19:09:15.907Z,29.07
2023-02-04T19:11:52.726Z,22.85
2023-02-04T19:17:20.844Z,26.40
2023-02-04T19:19:59.568Z,23.55
2023-02-04T19:22:41.644Z,25.37
2023-02-04T19:25:23.969Z,25.10
2023-02-04T19:27:57.176Z,25.92
2023-02-04T19:30:36.251Z,26.42
2023-02-04T19:33:18.104Z,25.40
2023-02-04T19:35:50.267Z,26.40
2023-02-04T19:38:32.531Z,24.98
2023-02-04T19:41:03.293Z,29.25
2023-02-04T19:43:38.924Z,29.70
2023-02-04T19:46:25.142Z,27.98
2023-02-04T19:48:55.839Z,28.80
2023-02-04T19:51:31.781Z,29.20
2023-02-04T19:54:24.020Z,31.73
2023-02-04T19:56:56.858Z,28.75
2023-02-04T19:59:30.068Z,25.05
2023-02-04T20:02:12.156Z,28.67
2023-02-04T20:04:47.896Z,27.22
2023-02-04T20:07:29.353Z,30.82
2023-02-04T20:10:11.624Z,27.60
2023-02-04T20:12:42.401Z,31.33
2023-02-04T20:15:21.280Z,27.82
2023-02-04T20:17:53.153Z,27.25
2023-02-04T20:20:32.076Z,28.52
2023-02-04T20:23:24.393Z,28.17
2023-02-04T20:25:55.371Z,26.57
2023-02-04T20:28:29.962Z,28.70
2023-02-04T20:31:02.189Z,31.50
2023-02-04T20:33:35.723Z,30.23
2023-02-04T20:36:29.880Z,29.02
2023-02-04T20:39:28.504Z,31.40
2023-02-04T20:42:18.596Z,32.15
2023-02-04T20:44:49.252Z,30.55
2023-02-04T20:47:26.428Z,28.60
2023-02-04T20:49:59.252Z,31.40
2023-02-04T20:52:51.538Z,30.80
2023-02-04T20:55:34.244Z,29.18
2023-02-04T20:58:19.858Z,28.47
2023-02-04T21:00:53.475Z,34.45
2023-02-04T21:03:29.996Z,31.05
2023-02-04T21:06:02.004Z,32.88
2023-02-04T21:08:41.395Z,34.88
2023-02-04T21:11:12.157Z,38.25
2023-02-04T21:13:42.918Z,36.08
2023-02-04T21:16:13.644Z,42.45
2023-02-04T21:18:44.343Z,34.98
2023-02-04T21:21:17.694Z,37.03
2023-02-04T21:23:48.274Z,37.15
2023-02-04T21:26:18.958Z,37.63
2023-02-04T21:28:49.726Z,35.48
2023-02-04T21:31:20.688Z,32.38
2023-02-04T21:33:51.705Z,36.20
2023-02-04T21:36:23.885Z,36.08
2023-02-04T21:38:54.757Z,32.42
2023-02-04T21:41:25.621Z,30.88
2023-02-04T21:43:56.309Z,31.10
2023-02-04T21:46:27.757Z,31.48
2023-02-04T21:48:59.069Z,27.05
2023-02-04T21:51:29.798Z,27.02
2023-02-04T21:54:01.100Z,27.82
2023-02-04T21:56:31.732Z,24.72
2023-02-04T21:59:02.386Z,28.55
2023-02-04T22:01:33.123Z,26.48
2023-02-04T22:04:03.948Z,31.12
2023-02-04T22:06:34.642Z,28.32
2023-02-04T22:09:05.311Z,29.37
2023-02-04T22:11:35.962Z,30.30
2023-02-04T22:14:06.695Z,36.00
2023-02-04T22:16:37.415Z,34.13
2023-02-04T22:19:08.091Z,31.10
2023-02-04T22:21:39.387Z,33.98
2023-02-04T22:24:10.050Z,41.28
2023-02-04T22:26:40.716Z,62.08
2023-02-04T22:29:11.383Z,40.67
2023-02-04T22:31:42.094Z,39.05
2023-02-04T22:34:12.848Z,32.13
2023-02-04T22:36:43.524Z,32.70
2023-02-04T22:39:14.282Z,27.95
2023-02-04T22:41:44.997Z,29.40
2023-02-04T22:44:15.751Z,25.97
2023-02-04T22:46:47.530Z,28.05
2023-02-04T22:49:18.470Z,30.82
2023-02-04T22:51:49.138Z,29.98
2023-02-04T22:54:19.804Z,27.13
2023-02-04T22:56:50.456Z,30.50
2023-02-04T22:59:21.194Z,31.05
2023-02-04T23:01:51.912Z,30.30
2023-02-04T23:04:22.649Z,29.23
2023-02-04T23:06:54.298Z,31.12
2023-02-04T23:09:25.478Z,29.18
2023-02-04T23:11:57.505Z,26.42
2023-02-04T23:14:28.172Z,30.30
2023-02-04T23:16:58.840Z,33.70
2023-02-04T23:19:29.528Z,45.98
2023-02-04T23:22:00.189Z,35.52
2023-02-04T23:24:31.156Z,32.70
2023-02-04T23:27:01.887Z,29.60
2023-02-04T23:29:34.670Z,28.60
2023-02-04T23:32:06.029Z,29.32
2023-02-04T23:34:36.734Z,26.93
2023-02-04T23:37:07.868Z,28.42
2023-02-04T23:39:38.579Z,32.00
2023-02-04T23:42:09.373Z,33.55
2023-02-04T23:44:40.015Z,32.28
2023-02-04T23:47:10.813Z,32.35
2023-02-04T23:49:41.483Z,29.85
2023-02-04T23:52:12.157Z,27.77
2023-02-04T23:54:43.045Z,32.38
2023-02-04T23:57:14.456Z,34.30
2023-02-04T23:59:45.169Z,35.83
